This is the latest recevied weather packets stored in our database for station/object OK1VOF-13. If no packets are shown the sender has not sent any weather packets the latest 10 day(s).
| Time | Temp. | Humidity | Pressure | Rain* | Wind** | Luminosity | Snow |
|---|---|---|---|---|---|---|---|
| 1777559908 | 33.33° C | 8% | 1029.4 hPa | 0 mm | - | - | - |
| 1777559903 | 33.33° C | 8% | 1029.4 hPa | 0 mm | - | - | - |
| 1777559011 | 30° C | 10% | 1029.4 hPa | 0 mm | - | - | - |
| 1777559005 | 30° C | 10% | 1029.4 hPa | 0 mm | - | - | - |
| 1777558706 | 34.44° C | 7% | 1029.5 hPa | 0 mm | - | - | - |
| 1777558407 | 37.22° C | 7% | 1029.6 hPa | 0 mm | - | - | - |
| 1777558113 | 32.22° C | 9% | 1029.5 hPa | 0 mm | - | - | - |
| 1777558113 | 32.22° C | 9% | 1029.5 hPa | 0 mm | - | - | - |
| 1777558108 | 32.22° C | 9% | 1029.5 hPa | 0 mm | - | - | - |
| 1777557515 | 32.78° C | 7% | 1029.6 hPa | 0 mm | - | - | - |
| 1777557510 | 32.78° C | 7% | 1029.6 hPa | 0 mm | - | - | - |
| 1777557211 | 35° C | 6% | 1029.7 hPa | 0 mm | - | - | - |
| 1777556912 | 41.11° C | 4% | 1029.7 hPa | 0 mm | - | - | - |
| 1777556612 | 43.33° C | 3% | 1029.8 hPa | 0 mm | - | - | - |
| 1777556313 | 43.89° C | 3% | 1029.9 hPa | 0 mm | - | - | - |
| 1777556014 | 45° C | 3% | 1030.1 hPa | 0 mm | - | - | - |
| 1777555715 | 42.78° C | 3% | 1030.1 hPa | 0 mm | - | - | - |
| 1777555117 | 42.22° C | 3% | 1030.1 hPa | 0 mm | - | - | - |
| 1777554817 | 43.33° C | 3% | 1030.2 hPa | 0 mm | - | - | - |
| 1777554519 | 40° C | 4% | 1030.2 hPa | 0 mm | - | - | - |
| 1777553920 | 36.67° C | 5% | 1030.3 hPa | 0 mm | - | - | - |
| 1777553621 | 32.78° C | 6% | 1030.2 hPa | 0 mm | - | - | - |
| 1777553322 | 32.78° C | 6% | 1030.4 hPa | 0 mm | - | - | - |
| 1777553022 | 33.33° C | 6% | 1030.3 hPa | 0 mm | - | - | - |
| 1777552723 | 37.22° C | 5% | 1030.6 hPa | 0 mm | - | - | - |
* Rain latest hour (hover to see other rain measurements)
** Current wind speed in m/s (hover to see current wind gust speed)